createdAt,value
2023-10-09T00:02:11.388Z,2.45
2023-10-09T00:04:42.863Z,2.75
2023-10-09T00:07:11.540Z,2.55
2023-10-09T00:09:48.369Z,2.60
2023-10-09T00:12:24.357Z,2.38
2023-10-09T00:14:56.769Z,2.33
2023-10-09T00:17:24.581Z,2.05
2023-10-09T00:19:52.606Z,2.38
2023-10-09T00:22:26.249Z,2.35
2023-10-09T00:25:28.524Z,2.58
2023-10-09T00:27:55.097Z,2.28
2023-10-09T00:30:31.234Z,2.10
2023-10-09T00:33:02.432Z,2.17
2023-10-09T00:35:40.861Z,2.40
2023-10-09T00:38:25.417Z,2.65
2023-10-09T00:41:08.944Z,2.80
2023-10-09T00:43:37.736Z,2.40
2023-10-09T00:46:18.020Z,2.70
2023-10-09T00:48:48.800Z,2.90
2023-10-09T00:51:20.539Z,2.83
2023-10-09T00:53:53.046Z,2.45
2023-10-09T00:56:29.929Z,3.05
2023-10-09T00:59:15.524Z,2.30
2023-10-09T01:02:03.078Z,2.22
2023-10-09T01:04:31.145Z,2.20
2023-10-09T01:07:16.807Z,2.42
2023-10-09T01:09:45.662Z,2.67
2023-10-09T01:12:18.530Z,2.72
2023-10-09T01:14:46.114Z,3.00
2023-10-09T01:17:13.489Z,2.65
2023-10-09T01:19:40.342Z,2.30
2023-10-09T01:22:17.216Z,2.95
2023-10-09T01:24:44.968Z,2.50
2023-10-09T01:27:18.056Z,2.42
2023-10-09T01:29:47.471Z,2.50
2023-10-09T01:32:18.014Z,2.38
2023-10-09T01:34:51.741Z,2.95
2023-10-09T01:37:21.506Z,2.72
2023-10-09T01:39:52.702Z,3.00
2023-10-09T01:45:21.921Z,2.45
2023-10-09T01:47:57.916Z,2.67
2023-10-09T01:50:43.462Z,2.50
2023-10-09T01:53:10.237Z,2.42
2023-10-09T01:55:38.791Z,2.38
2023-10-09T01:58:17.904Z,3.15
2023-10-09T02:00:49.608Z,2.60
2023-10-09T02:03:16.868Z,2.33
2023-10-09T02:05:43.715Z,2.78
2023-10-09T02:08:11.587Z,2.55
2023-10-09T02:10:40.787Z,3.15
2023-10-09T02:13:11.172Z,2.55
2023-10-09T02:15:44.578Z,2.75
2023-10-09T02:18:24.039Z,2.45
2023-10-09T02:21:00.801Z,2.70
2023-10-09T02:23:40.313Z,2.80
2023-10-09T02:26:08.469Z,2.70
2023-10-09T02:28:35.920Z,3.00
2023-10-09T02:31:11.326Z,2.97
2023-10-09T02:33:40.259Z,2.58
2023-10-09T02:36:08.009Z,2.80
2023-10-09T02:38:37.076Z,2.63
2023-10-09T02:41:03.826Z,2.75
2023-10-09T02:43:47.619Z,2.58
2023-10-09T02:46:30.497Z,2.40
2023-10-09T02:49:04.670Z,3.25
2023-10-09T02:51:34.989Z,2.85
2023-10-09T02:54:23.545Z,2.35
2023-10-09T02:56:57.356Z,2.58
2023-10-09T02:59:24.874Z,2.30
2023-10-09T03:01:55.068Z,2.42
2023-10-09T03:04:24.986Z,2.65
2023-10-09T03:09:33.498Z,2.53
2023-10-09T03:12:06.767Z,2.65
2023-10-09T03:14:39.216Z,2.80
2023-10-09T03:17:08.229Z,2.75
2023-10-09T03:19:39.011Z,2.90
2023-10-09T03:22:10.652Z,2.83
2023-10-09T03:24:38.975Z,2.33
2023-10-09T03:27:06.099Z,3.17
2023-10-09T03:29:32.783Z,2.92
2023-10-09T03:32:01.211Z,3.30
2023-10-09T03:34:29.106Z,3.03
2023-10-09T03:37:21.920Z,2.50
2023-10-09T03:39:49.572Z,3.22
2023-10-09T03:42:23.749Z,3.10
2023-10-09T03:44:53.823Z,3.08
2023-10-09T03:47:24.284Z,3.58
2023-10-09T03:49:55.319Z,3.25
2023-10-09T03:52:26.684Z,3.17
2023-10-09T03:54:53.819Z,3.30
2023-10-09T03:57:20.800Z,3.78
2023-10-09T03:59:52.836Z,3.63
2023-10-09T04:02:19.664Z,3.90
2023-10-09T04:04:48.662Z,4.20
2023-10-09T04:07:18.986Z,3.90
2023-10-09T04:10:11.403Z,4.30
2023-10-09T04:12:40.835Z,4.18
2023-10-09T04:15:16.217Z,4.28
2023-10-09T04:17:44.350Z,4.55
2023-10-09T04:20:37.172Z,4.70
2023-10-09T04:23:07.513Z,5.45
2023-10-09T04:25:43.649Z,4.50
2023-10-09T04:28:20.345Z,5.18
2023-10-09T04:30:48.593Z,4.40
2023-10-09T04:33:33.919Z,5.50
2023-10-09T04:36:23.547Z,5.90
2023-10-09T04:39:05.790Z,5.07
2023-10-09T04:41:53.153Z,5.43
2023-10-09T04:44:21.721Z,5.25
2023-10-09T04:47:08.296Z,5.65
2023-10-09T04:49:48.938Z,5.63
2023-10-09T04:52:30.404Z,4.97
2023-10-09T04:55:13.749Z,4.57
2023-10-09T04:57:45.062Z,4.85
2023-10-09T05:00:27.851Z,7.68
2023-10-09T05:02:58.130Z,5.03
2023-10-09T05:05:42.147Z,5.20
2023-10-09T05:08:31.051Z,5.15
2023-10-09T05:10:58.737Z,5.45
2023-10-09T05:13:42.900Z,5.63
2023-10-09T05:16:20.863Z,5.20
2023-10-09T05:21:33.566Z,5.60
2023-10-09T05:24:14.497Z,5.50
2023-10-09T05:26:49.831Z,6.25
2023-10-09T05:29:30.323Z,5.45
2023-10-09T05:32:15.382Z,5.32
2023-10-09T05:35:01.510Z,6.35
2023-10-09T05:37:33.968Z,6.13
2023-10-09T05:40:03.550Z,5.30
2023-10-09T05:42:44.764Z,5.78
2023-10-09T05:45:20.518Z,6.38
2023-10-09T05:48:07.928Z,5.88
2023-10-09T05:50:56.685Z,5.60
2023-10-09T05:53:41.855Z,6.68
2023-10-09T05:56:27.131Z,5.78
2023-10-09T05:59:12.181Z,6.55
2023-10-09T06:01:41.668Z,6.40
2023-10-09T06:04:17.625Z,6.40
2023-10-09T06:06:56.689Z,6.53
2023-10-09T06:09:23.945Z,6.68
2023-10-09T06:11:56.419Z,7.22
2023-10-09T06:14:30.954Z,6.68
2023-10-09T06:17:02.405Z,6.30
2023-10-09T06:19:29.772Z,6.15
2023-10-09T06:22:13.958Z,6.68
2023-10-09T06:24:55.610Z,5.95
2023-10-09T06:27:32.761Z,6.68
2023-10-09T06:30:19.034Z,7.15
2023-10-09T06:32:52.404Z,6.93
2023-10-09T06:35:19.430Z,5.90
2023-10-09T06:38:04.480Z,6.65
2023-10-09T06:40:55.253Z,6.95
2023-10-09T06:43:23.342Z,6.35
2023-10-09T06:45:59.955Z,6.85
2023-10-09T06:48:36.013Z,6.75
2023-10-09T06:51:40.412Z,6.22
2023-10-09T06:54:10.865Z,6.90
2023-10-09T06:56:37.846Z,5.68
2023-10-09T06:59:24.637Z,6.43
2023-10-09T07:02:10.574Z,5.85
2023-10-09T07:04:38.050Z,6.68
2023-10-09T07:07:25.326Z,6.18
2023-10-09T07:10:11.499Z,7.15
2023-10-09T07:12:43.865Z,5.90
2023-10-09T07:15:43.450Z,6.13
2023-10-09T07:18:24.827Z,6.55
2023-10-09T07:21:00.701Z,6.95
2023-10-09T07:23:33.941Z,5.85
2023-10-09T07:26:19.333Z,6.20
2023-10-09T07:28:49.653Z,8.48
2023-10-09T07:31:40.947Z,7.53
2023-10-09T07:34:28.067Z,7.38
2023-10-09T07:36:57.729Z,8.32
2023-10-09T07:39:25.172Z,8.07
2023-10-09T07:42:02.906Z,8.38
2023-10-09T07:44:37.997Z,8.23
2023-10-09T07:47:16.508Z,8.43
2023-10-09T07:49:43.544Z,8.98
2023-10-09T07:52:10.303Z,8.48
2023-10-09T07:54:37.664Z,7.72
2023-10-09T07:57:16.444Z,7.47
2023-10-09T07:59:55.594Z,9.18
2023-10-09T08:02:32.789Z,8.52
2023-10-09T08:05:20.253Z,8.35
2023-10-09T08:08:31.090Z,8.25
2023-10-09T08:11:41.148Z,7.60
2023-10-09T08:14:22.211Z,8.23
2023-10-09T08:16:53.029Z,7.95
2023-10-09T08:19:34.847Z,8.88
2023-10-09T08:22:19.405Z,8.40
2023-10-09T08:24:53.829Z,8.40
2023-10-09T08:27:32.449Z,7.55
2023-10-09T08:30:19.163Z,9.85
2023-10-09T08:35:49.365Z,8.02
2023-10-09T08:38:24.482Z,9.15
2023-10-09T08:40:55.644Z,10.20
2023-10-09T08:43:23.352Z,10.32
2023-10-09T08:45:54.280Z,10.13
2023-10-09T08:48:22.744Z,10.77
2023-10-09T08:50:55.417Z,12.93
2023-10-09T08:53:24.953Z,9.68
2023-10-09T08:55:52.419Z,8.88
2023-10-09T08:58:26.106Z,10.52
2023-10-09T09:00:53.746Z,9.50
2023-10-09T09:03:26.954Z,9.85
2023-10-09T09:06:05.839Z,9.50
2023-10-09T09:08:37.810Z,8.52
2023-10-09T09:11:23.593Z,8.75
2023-10-09T09:14:07.971Z,9.88
2023-10-09T09:16:37.699Z,9.43
2023-10-09T09:19:09.595Z,9.68
2023-10-09T09:22:12.849Z,10.00
2023-10-09T09:24:40.577Z,8.80
2023-10-09T09:27:19.833Z,7.78
2023-10-09T09:29:53.897Z,7.78
2023-10-09T09:32:36.868Z,7.65
2023-10-09T09:35:07.359Z,7.60
2023-10-09T09:37:55.484Z,6.88
2023-10-09T09:40:34.709Z,7.70
2023-10-09T09:43:22.580Z,7.47
2023-10-09T09:45:52.904Z,6.53
2023-10-09T09:48:20.142Z,9.20
2023-10-09T09:50:55.055Z,7.60
2023-10-09T09:53:24.368Z,6.28
2023-10-09T09:55:57.390Z,6.97
2023-10-09T09:58:43.854Z,7.22
2023-10-09T10:01:17.555Z,6.85
2023-10-09T10:03:50.647Z,6.20
2023-10-09T10:06:21.210Z,6.60
2023-10-09T10:08:52.232Z,5.85
2023-10-09T10:11:49.578Z,6.30
2023-10-09T10:14:42.409Z,7.10
2023-10-09T10:17:18.845Z,6.45
2023-10-09T10:20:00.933Z,6.82
2023-10-09T10:22:32.050Z,5.55
2023-10-09T10:24:59.670Z,7.18
2023-10-09T10:27:27.842Z,7.20
2023-10-09T10:30:25.105Z,6.07
2023-10-09T10:32:54.802Z,5.90
2023-10-09T10:35:33.602Z,6.05
2023-10-09T10:38:09.476Z,4.80
2023-10-09T10:40:47.921Z,5.93
2023-10-09T10:43:33.491Z,5.30
2023-10-09T10:46:25.162Z,5.47
2023-10-09T10:49:01.784Z,6.03
2023-10-09T10:51:49.416Z,5.90
2023-10-09T10:54:35.088Z,6.10
2023-10-09T10:57:01.820Z,6.00
2023-10-09T10:59:37.844Z,6.70
2023-10-09T11:02:11.512Z,6.25
2023-10-09T11:04:45.557Z,5.60
2023-10-09T11:07:26.158Z,5.63
2023-10-09T11:10:07.258Z,6.53
2023-10-09T11:12:43.934Z,6.00
2023-10-09T11:15:24.170Z,6.93
2023-10-09T11:18:08.701Z,6.32
2023-10-09T11:20:37.484Z,7.28
2023-10-09T11:23:11.435Z,6.55
2023-10-09T11:25:53.747Z,6.85
2023-10-09T11:28:32.444Z,5.95
2023-10-09T11:31:17.958Z,6.57
2023-10-09T11:33:49.964Z,6.13
2023-10-09T11:36:17.463Z,6.70
2023-10-09T11:38:49.441Z,6.22
2023-10-09T11:41:21.098Z,7.38
2023-10-09T11:43:55.625Z,7.72
2023-10-09T11:46:39.006Z,7.72
2023-10-09T11:49:22.259Z,7.90
2023-10-09T11:52:07.883Z,7.72
2023-10-09T11:54:36.209Z,8.05
2023-10-09T11:57:03.958Z,8.73
2023-10-09T11:59:42.448Z,9.07
2023-10-09T12:02:14.084Z,8.82
2023-10-09T12:04:46.772Z,8.23
2023-10-09T12:07:14.286Z,7.45
2023-10-09T12:09:41.549Z,7.93
2023-10-09T12:12:12.400Z,8.18
2023-10-09T12:14:39.100Z,8.32
2023-10-09T12:17:07.100Z,7.93
2023-10-09T12:19:35.006Z,8.13
2023-10-09T12:22:02.552Z,9.10
2023-10-09T12:24:30.286Z,8.35
2023-10-09T12:26:57.289Z,8.40
2023-10-09T12:29:24.961Z,10.95
2023-10-09T12:31:59.280Z,8.90
2023-10-09T12:34:29.360Z,7.90
2023-10-09T12:36:56.795Z,8.27
2023-10-09T12:39:23.596Z,9.23
2023-10-09T12:41:54.659Z,10.15
2023-10-09T12:44:21.484Z,9.57
2023-10-09T12:46:54.296Z,9.88
2023-10-09T12:49:28.023Z,10.23
2023-10-09T12:51:55.662Z,8.45
2023-10-09T12:54:28.368Z,9.85
2023-10-09T12:56:56.510Z,9.57
2023-10-09T12:59:25.682Z,10.00
2023-10-09T13:01:59.021Z,9.70
2023-10-09T13:04:33.251Z,8.43
2023-10-09T13:07:05.036Z,9.75
2023-10-09T13:09:43.716Z,8.68
2023-10-09T13:12:19.231Z,9.45
2023-10-09T13:14:48.538Z,11.15
2023-10-09T13:17:15.381Z,9.07
2023-10-09T13:19:42.229Z,8.77
2023-10-09T13:22:14.070Z,9.60
2023-10-09T13:24:43.369Z,8.95
2023-10-09T13:27:11.045Z,9.40
2023-10-09T13:29:43.666Z,8.65
2023-10-09T13:32:16.340Z,9.80
2023-10-09T13:34:46.151Z,8.45
2023-10-09T13:37:15.024Z,10.18
2023-10-09T13:39:53.600Z,8.65
2023-10-09T13:42:20.790Z,9.05
2023-10-09T13:44:50.047Z,9.45
2023-10-09T13:47:24.514Z,8.57
2023-10-09T13:49:51.977Z,9.05
2023-10-09T13:52:19.706Z,10.07
2023-10-09T13:54:49.427Z,10.20
2023-10-09T13:57:16.751Z,10.15
2023-10-09T13:59:50.160Z,9.52
2023-10-09T14:02:19.349Z,9.45
2023-10-09T14:04:53.508Z,10.70
2023-10-09T14:07:21.398Z,8.65
2023-10-09T14:09:57.205Z,7.38
2023-10-09T14:12:25.934Z,9.20
2023-10-09T14:14:57.891Z,9.00
2023-10-09T14:17:25.121Z,8.32
2023-10-09T14:19:53.338Z,8.70
2023-10-09T14:22:21.509Z,9.13
2023-10-09T14:24:56.670Z,8.60
2023-10-09T14:27:28.018Z,10.20
2023-10-09T14:30:02.044Z,8.50
2023-10-09T14:32:38.308Z,8.15
2023-10-09T14:35:14.323Z,6.28
2023-10-09T14:37:42.170Z,5.10
2023-10-09T14:40:14.533Z,4.32
2023-10-09T14:42:46.201Z,5.03
2023-10-09T14:45:16.835Z,5.10
2023-10-09T14:47:44.031Z,6.72
2023-10-09T14:50:14.616Z,5.65
2023-10-09T14:52:41.863Z,5.53
2023-10-09T14:55:10.896Z,5.63
2023-10-09T14:57:37.724Z,5.90
2023-10-09T15:00:14.839Z,4.78
2023-10-09T15:05:13.097Z,4.85
2023-10-09T15:07:43.851Z,4.90
2023-10-09T15:10:16.331Z,6.65
2023-10-09T15:12:44.208Z,5.22
2023-10-09T15:15:18.656Z,7.03
2023-10-09T15:17:49.309Z,6.13
2023-10-09T15:20:16.785Z,5.55
2023-10-09T15:22:44.714Z,6.13
2023-10-09T15:25:15.703Z,6.40
2023-10-09T15:27:43.869Z,6.00
2023-10-09T15:30:14.737Z,6.20
2023-10-09T15:32:45.466Z,5.63
2023-10-09T15:35:14.657Z,5.38
2023-10-09T15:37:45.131Z,6.10
2023-10-09T15:40:16.017Z,5.43
2023-10-09T15:42:44.753Z,6.05
2023-10-09T15:45:13.225Z,6.15
2023-10-09T15:47:40.926Z,6.40
2023-10-09T15:50:13.094Z,6.45
2023-10-09T15:52:40.341Z,5.95
2023-10-09T15:55:14.506Z,6.22
2023-10-09T15:57:42.755Z,6.25
2023-10-09T16:00:18.947Z,6.55
2023-10-09T16:02:49.050Z,6.00
2023-10-09T16:05:19.354Z,5.75
2023-10-09T16:08:07.158Z,5.65
2023-10-09T16:10:35.864Z,7.20
2023-10-09T16:13:02.767Z,7.18
2023-10-09T16:15:29.761Z,7.00
2023-10-09T16:18:07.751Z,7.80
2023-10-09T16:20:37.744Z,7.65
2023-10-09T16:23:05.947Z,8.48
2023-10-09T16:25:35.228Z,7.25
2023-10-09T16:28:05.424Z,7.95
2023-10-09T16:30:32.149Z,8.73
2023-10-09T16:32:59.302Z,7.65
2023-10-09T16:35:35.420Z,7.13
2023-10-09T16:38:06.169Z,6.40
2023-10-09T16:40:33.103Z,7.45
2023-10-09T16:43:02.132Z,7.68
2023-10-09T16:45:28.820Z,7.82
2023-10-09T16:48:00.177Z,7.78
2023-10-09T16:50:29.414Z,7.57
2023-10-09T16:52:56.502Z,6.70
2023-10-09T16:55:25.544Z,7.75
2023-10-09T16:57:52.465Z,6.22
2023-10-09T17:00:29.576Z,7.78
2023-10-09T17:02:57.951Z,6.63
2023-10-09T17:05:33.990Z,5.45
2023-10-09T17:08:01.446Z,7.32
2023-10-09T17:10:32.757Z,7.50
2023-10-09T17:13:01.646Z,7.05
2023-10-09T17:15:34.048Z,6.68
2023-10-09T17:18:04.144Z,6.13
2023-10-09T17:20:31.379Z,6.72
2023-10-09T17:23:01.306Z,6.45
2023-10-09T17:25:32.218Z,6.35
2023-10-09T17:28:00.769Z,7.03
2023-10-09T17:30:34.542Z,6.88
2023-10-09T17:33:05.350Z,7.57
2023-10-09T17:35:32.623Z,6.80
2023-10-09T17:38:00.119Z,6.70
2023-10-09T17:40:29.711Z,6.75
2023-10-09T17:42:57.262Z,6.95
2023-10-09T17:45:25.706Z,6.65
2023-10-09T17:47:55.034Z,6.68
2023-10-09T17:50:23.252Z,6.80
2023-10-09T17:52:50.404Z,7.72
2023-10-09T17:55:18.969Z,5.13
2023-10-09T17:57:51.108Z,6.68
2023-10-09T18:00:26.739Z,6.07
2023-10-09T18:02:54.057Z,4.97
2023-10-09T18:05:21.262Z,6.63
2023-10-09T18:07:53.160Z,6.38
2023-10-09T18:10:22.162Z,7.60
2023-10-09T18:12:54.057Z,6.13
2023-10-09T18:15:21.957Z,5.05
2023-10-09T18:17:48.992Z,5.63
2023-10-09T18:20:15.872Z,5.25
2023-10-09T18:22:42.517Z,5.30
2023-10-09T18:25:10.423Z,5.05
2023-10-09T18:27:37.176Z,6.30
2023-10-09T18:30:06.440Z,4.50
2023-10-09T18:32:33.100Z,4.45
2023-10-09T18:35:00.422Z,3.97
2023-10-09T18:37:27.185Z,4.05
2023-10-09T18:39:53.825Z,4.45
2023-10-09T18:42:20.474Z,4.38
2023-10-09T18:44:47.683Z,4.93
2023-10-09T18:47:20.563Z,5.30
2023-10-09T18:49:51.521Z,5.75
2023-10-09T18:54:46.556Z,6.18
2023-10-09T18:57:16.836Z,6.80
2023-10-09T18:59:44.418Z,7.03
2023-10-09T19:02:12.819Z,6.80
2023-10-09T19:04:39.977Z,6.55
2023-10-09T19:07:07.135Z,7.05
2023-10-09T19:09:33.879Z,7.20
2023-10-09T19:12:00.549Z,6.88
2023-10-09T19:14:27.343Z,7.43
2023-10-09T19:16:59.493Z,6.63
2023-10-09T19:19:26.656Z,7.00
2023-10-09T19:21:54.278Z,8.15
2023-10-09T19:24:21.000Z,8.57
2023-10-09T19:26:47.719Z,7.80
2023-10-09T19:29:14.795Z,8.00
2023-10-09T19:31:43.778Z,7.18
2023-10-09T19:34:14.328Z,8.25
2023-10-09T19:36:42.341Z,7.65
2023-10-09T19:39:10.003Z,7.38
2023-10-09T19:41:36.971Z,7.15
2023-10-09T19:44:05.823Z,8.65
2023-10-09T19:46:34.648Z,8.50
2023-10-09T19:49:02.015Z,8.07
2023-10-09T19:51:30.368Z,7.72
2023-10-09T19:53:57.181Z,7.25
2023-10-09T19:56:24.128Z,6.93
2023-10-09T19:58:53.687Z,7.57
2023-10-09T20:01:20.486Z,7.28
2023-10-09T20:03:47.221Z,7.45
2023-10-09T20:06:17.193Z,8.57
2023-10-09T20:08:43.828Z,7.30
2023-10-09T20:11:13.763Z,7.78
2023-10-09T20:13:43.065Z,7.53
2023-10-09T20:16:10.552Z,8.35
2023-10-09T20:18:44.136Z,8.57
2023-10-09T20:21:14.097Z,8.68
2023-10-09T20:23:41.782Z,8.32
2023-10-09T20:26:18.242Z,7.57
2023-10-09T20:28:46.956Z,8.65
2023-10-09T20:31:14.077Z,8.10
2023-10-09T20:33:43.369Z,7.85
2023-10-09T20:36:19.998Z,7.63
2023-10-09T20:38:48.922Z,6.93
2023-10-09T20:41:17.385Z,7.15
2023-10-09T20:43:44.205Z,5.93
2023-10-09T20:46:13.205Z,5.70
2023-10-09T20:48:43.141Z,5.55
2023-10-09T20:51:11.628Z,6.32
2023-10-09T20:53:41.323Z,5.20
2023-10-09T20:56:09.580Z,5.50
2023-10-09T20:58:36.455Z,5.88
2023-10-09T21:01:15.678Z,4.90
2023-10-09T21:03:48.082Z,5.55
2023-10-09T21:06:15.412Z,5.20
2023-10-09T21:08:43.678Z,5.38
2023-10-09T21:11:11.001Z,4.95
2023-10-09T21:13:38.597Z,4.68
2023-10-09T21:16:15.478Z,4.50
2023-10-09T21:18:46.324Z,5.43
2023-10-09T21:23:44.948Z,6.10
2023-10-09T21:26:19.314Z,6.13
2023-10-09T21:28:47.875Z,6.22
2023-10-09T21:31:17.121Z,7.30
2023-10-09T21:33:44.878Z,7.80
2023-10-09T21:36:11.592Z,8.27
2023-10-09T21:38:38.800Z,7.78
2023-10-09T21:41:22.708Z,9.27
2023-10-09T21:43:54.730Z,9.00
2023-10-09T21:46:26.046Z,9.85
2023-10-09T21:48:52.783Z,10.48
2023-10-09T21:51:19.478Z,10.98
2023-10-09T21:53:46.267Z,10.77
2023-10-09T21:56:21.018Z,12.10
2023-10-09T21:58:48.138Z,11.65
2023-10-09T22:01:15.669Z,11.85
2023-10-09T22:03:42.837Z,11.80
2023-10-09T22:06:13.393Z,12.00
2023-10-09T22:08:40.416Z,11.40
2023-10-09T22:11:08.481Z,11.77
2023-10-09T22:13:35.855Z,11.55
2023-10-09T22:16:02.592Z,11.52
2023-10-09T22:18:43.720Z,11.23
2023-10-09T22:21:11.739Z,12.52
2023-10-09T22:23:46.649Z,11.90
2023-10-09T22:26:17.518Z,10.98
2023-10-09T22:28:47.383Z,10.70
2023-10-09T22:31:16.769Z,11.75
2023-10-09T22:33:47.286Z,11.93
2023-10-09T22:36:38.260Z,11.20
2023-10-09T22:39:21.118Z,11.23
2023-10-09T22:41:50.810Z,11.32
2023-10-09T22:44:19.803Z,11.18
2023-10-09T22:46:47.699Z,10.10
2023-10-09T22:49:15.974Z,11.30
2023-10-09T22:51:53.872Z,10.25
2023-10-09T22:54:36.760Z,10.15
2023-10-09T22:57:06.580Z,11.60
2023-10-09T22:59:44.961Z,11.13
2023-10-09T23:02:23.090Z,10.65
2023-10-09T23:04:57.325Z,10.68
2023-10-09T23:07:24.440Z,10.40
2023-10-09T23:09:51.932Z,9.57
2023-10-09T23:12:26.176Z,10.95
2023-10-09T23:14:56.298Z,9.77
2023-10-09T23:17:43.392Z,9.93
2023-10-09T23:20:18.356Z,9.10
2023-10-09T23:22:52.678Z,10.05
2023-10-09T23:25:34.993Z,9.90
2023-10-09T23:28:36.788Z,9.88
2023-10-09T23:31:27.177Z,8.95
2023-10-09T23:33:57.053Z,9.52
2023-10-09T23:36:28.487Z,9.48
2023-10-09T23:39:13.172Z,9.32
2023-10-09T23:41:41.005Z,9.00
2023-10-09T23:44:11.267Z,8.40
2023-10-09T23:46:38.278Z,8.80
2023-10-09T23:49:08.158Z,8.65
2023-10-09T23:51:41.035Z,8.57
2023-10-09T23:54:12.008Z,9.05
2023-10-09T23:59:18.777Z,8.75
